Flugplatz Tannheim

Für EDMT sind keine METAR/TAF Berichte vorhanden.
Es werden die Flugwettermeldungen vom Flugplatz Memmingen Allgau in 10 km Entfernung angezeigt.

Bericht für EDJA

vom 23.02. um 22:50 UTC

Wind 24 kt aus 250°

Sichtweite 10 km oder mehr

aufgelockert bewölkt in 3400 ft

bedeckt in 4000 ft

Temperatur 13.0°C

Taupunkt 6.0°C

Luftfeuchtigkeit 62%

Luftdruck 1022 hPa

EDJA 232250Z AUTO 25024KT 9999 // SCT034/// OVC040/// 13/06 Q1022

Prognose für EDJA

vom 23.02. um 00:00 UTC

Am 23.02. zwischen 00:00 UTC und 00:00 UTC

Wind 25 kt aus 230° in Böen 35 kt

Sichtweite 10 km oder mehr

keine signifikanten Wettererscheinungen

keine Wolken


Am 23.02. zwischen 00:00 UTC und 00:00 UTC zeitweise

Sichtweite 3500 m

Regen

aufgebrochene Bewölkung in 800 ft


Zwischen 00:00 und 00:00 UTC übergehend zu

Wind 15 kt aus 280° in Böen 25 kt

Sichtweite 10 km oder mehr

keine signifikanten Wettererscheinungen

keine Wolken

TAF EDJA 231700Z 2318/2403 23025G35KT CAVOK TEMPO 2323/2403 3500 RA BKN008 BECMG 2400/2403 28015G25KT
Impressum